Time;durP1;ratioP1;P1;durP2;ratioP2;P2;SDS_P1;SDS_P2;PMS_P1;PMS_P2;Temp;Humidity;BMP_temperature;BMP_pressure;BME280_temperature;BME280_humidity;BME280_pressure;Samples;Min_cycle;Max_cycle;Signal;HPM_P1;HPM_P2
2021/04/15 00:01:01;;;;;;;15.40;12.18;;;;;;;13.31;64.09;99958.30;1730348;82;21249;-61
2021/04/15 00:03:31;;;;;;;14.53;11.90;;;;;;;13.31;64.17;99960.06;1748632;81;21123;-55
2021/04/15 00:06:07;;;;;;;16.23;12.73;;;;;;;13.30;64.14;99959.65;1747257;81;21270;-56
2021/04/15 00:08:39;;;;;;;16.90;12.40;;;;;;;13.24;64.21;99961.59;1748118;81;21171;-55
2021/04/15 00:11:07;;;;;;;17.53;12.83;;;;;;;13.29;64.25;99963.20;1748024;82;21123;-62
2021/04/15 00:13:38;;;;;;;17.15;13.35;;;;;;;13.32;64.13;99960.47;1719550;82;21185;-62
2021/04/15 00:16:09;;;;;;;17.02;14.40;;;;;;;13.35;64.03;99957.73;1743412;82;21274;-61
2021/04/15 00:18:39;;;;;;;19.17;15.18;;;;;;;13.35;64.03;99958.61;1748056;82;21163;-62
2021/04/15 00:21:07;;;;;;;19.80;15.18;;;;;;;13.30;64.20;99961.85;1745969;82;21135;-62
2021/04/15 00:23:35;;;;;;;21.90;16.77;;;;;;;13.26;64.35;99956.69;1748178;80;21151;-55
2021/04/15 00:26:04;;;;;;;19.92;15.35;;;;;;;13.17;64.56;99954.75;1748135;82;21155;-61
2021/04/15 00:28:32;;;;;;;22.25;15.88;;;;;;;13.12;64.72;99951.81;1748306;82;21151;-61
2021/04/15 00:31:02;;;;;;;20.00;16.20;;;;;;;13.11;64.80;99956.69;1737625;82;21147;-61
2021/04/15 00:33:32;;;;;;;22.77;16.15;;;;;;;13.07;64.91;99953.29;1739157;82;21117;-61
2021/04/15 00:36:02;;;;;;;21.80;16.15;;;;;;;13.02;65.10;99953.88;1748174;82;21205;-61
2021/04/15 00:38:29;;;;;;;21.17;16.23;;;;;;;12.96;65.19;99947.45;1748246;82;21131;-60
2021/04/15 00:40:58;;;;;;;20.37;16.17;;;;;;;12.95;65.32;99951.88;1747814;81;21191;-55
2021/04/15 00:43:35;;;;;;;22.75;17.02;;;;;;;12.92;65.43;99954.61;1742950;82;21618;-54
2021/04/15 00:46:10;;;;;;;20.32;15.58;;;;;;;12.88;65.63;99953.81;1748075;81;21108;-54
2021/04/15 00:48:43;;;;;;;19.40;16.15;;;;;;;12.88;65.74;99949.84;1817738;77;22170;-53
2021/04/15 00:51:30;;;;;;;20.60;16.67;;;;;;;12.83;65.84;99953.07;1754159;81;21581;-53
2021/04/15 00:54:02;;;;;;;22.07;17.35;;;;;;;12.82;65.92;99955.77;1745569;81;21150;-56
2021/04/15 00:56:32;;;;;;;18.40;16.50;;;;;;;12.82;65.99;99952.66;1761193;81;21693;-55
2021/04/15 00:59:00;;;;;;;22.45;17.67;;;;;;;12.81;66.03;99954.89;1761766;80;21296;-56
2021/04/15 01:01:29;;;;;;;20.50;15.80;;;;;;;12.80;66.10;99950.55;1718994;82;21536;-62
2021/04/15 01:03:57;;;;;;;19.57;15.93;;;;;;;12.81;66.06;99950.08;1714070;81;21186;-55
2021/04/15 01:06:25;;;;;;;22.30;16.42;;;;;;;12.81;66.06;99945.64;1761774;81;21179;-55
2021/04/15 01:08:54;;;;;;;20.57;15.85;;;;;;;12.83;66.02;99951.75;1758581;80;21582;-55
2021/04/15 01:11:54;;;;;;;19.50;16.20;;;;;;;12.88;65.94;99947.67;1731617;83;21154;-56
2021/04/15 01:15:11;;;;;;;17.57;15.68;;;;;;;12.87;65.88;99948.12;1749288;81;21107;-55
2021/04/15 01:17:49;;;;;;;20.17;15.55;;;;;;;12.87;65.85;99941.52;1759678;81;21103;-61
2021/04/15 01:21:16;;;;;;;18.52;15.78;;;;;;;12.89;65.72;99934.88;1731932;81;21139;-61
2021/04/15 01:24:10;;;;;;;16.60;14.58;;;;;;;12.92;65.59;99940.08;1753155;80;21139;-62
2021/04/15 01:27:08;;;;;;;18.85;15.43;;;;;;;12.93;65.43;99933.89;1759932;80;21562;-55
2021/04/15 01:30:02;;;;;;;18.32;15.53;;;;;;;12.94;65.33;99935.15;1731553;81;21127;-60
2021/04/15 01:32:40;;;;;;;18.45;15.08;;;;;;;12.94;65.31;99932.51;1748952;80;21163;-62
2021/04/15 01:35:24;;;;;;;17.20;15.50;;;;;;;12.97;65.29;99928.92;1762119;81;21122;-55
2021/04/15 01:38:14;;;;;;;17.55;15.60;;;;;;;12.99;65.21;99926.23;1740177;81;21333;-55
2021/04/15 01:41:06;;;;;;;17.75;14.80;;;;;;;12.98;65.14;99929.34;1699856;83;21127;-61
2021/04/15 01:43:39;;;;;;;16.95;15.18;;;;;;;12.99;65.09;99928.87;1699201;83;21138;-55
2021/04/15 01:46:07;;;;;;;16.25;13.72;;;;;;;12.94;65.17;99927.22;1687755;83;21555;-55
2021/04/15 01:48:49;;;;;;;15.78;13.93;;;;;;;12.94;65.17;99923.73;1687030;83;21182;-55
2021/04/15 01:51:34;;;;;;;17.10;13.15;;;;;;;12.92;65.20;99929.05;1740928;82;21143;-61
2021/04/15 01:54:26;;;;;;;15.60;13.22;;;;;;;12.86;65.24;99927.89;1746358;81;21163;-62
2021/04/15 01:57:08;;;;;;;13.43;11.80;;;;;;;12.73;65.41;99920.79;1746314;82;21261;-62
2021/04/15 01:59:54;;;;;;;17.15;13.20;;;;;;;12.61;65.64;99922.01;1747625;82;21164;-55
2021/04/15 02:02:32;;;;;;;15.25;13.45;;;;;;;12.54;65.82;99927.52;1747570;81;21619;-62
2021/04/15 02:05:05;;;;;;;16.60;12.75;;;;;;;12.49;65.98;99927.63;1727997;81;21088;-55
2021/04/15 02:07:36;;;;;;;14.47;13.05;;;;;;;12.45;66.14;99927.29;1718723;82;21583;-55
2021/04/15 02:10:09;;;;;;;13.95;12.45;;;;;;;12.47;66.17;99922.40;1761912;81;21120;-55
2021/04/15 02:12:40;;;;;;;14.43;12.88;;;;;;;12.49;66.17;99923.66;1741993;81;21162;-62
2021/04/15 02:15:31;;;;;;;16.45;13.62;;;;;;;12.49;66.23;99923.66;1735310;82;21249;-62
2021/04/15 02:18:04;;;;;;;15.60;13.05;;;;;;;12.56;66.14;99929.19;1747785;81;21277;-55
2021/04/15 02:20:32;;;;;;;16.05;14.55;;;;;;;12.59;66.12;99922.50;1748264;82;21290;-55
2021/04/15 02:23:35;;;;;;;15.65;13.88;;;;;;;12.64;66.03;99921.92;1726611;81;21178;-55
2021/04/15 02:26:15;;;;;;;16.42;14.73;;;;;;;12.68;65.99;99921.38;1704918;84;21139;-55
2021/04/15 02:28:50;;;;;;;17.50;15.58;;;;;;;12.72;65.90;99920.38;1748048;81;21178;-62
2021/04/15 02:31:47;;;;;;;18.02;16.05;;;;;;;12.75;65.81;99918.13;1741236;81;21542;-62
2021/04/15 02:34:20;;;;;;;18.52;16.25;;;;;;;12.77;65.70;99918.95;1738324;82;21284;-55
2021/04/15 02:36:59;;;;;;;18.37;16.50;;;;;;;12.79;65.59;99919.30;1742400;82;21265;-62
2021/04/15 02:39:45;;;;;;;18.90;17.00;;;;;;;12.79;65.55;99925.05;1747858;81;21196;-62
2021/04/15 02:42:19;;;;;;;20.25;16.55;;;;;;;12.82;65.53;99924.08;1721169;82;21175;-55
2021/04/15 02:44:49;;;;;;;19.80;15.93;;;;;;;12.83;65.38;99924.02;1729575;82;21598;-62
2021/04/15 02:47:41;;;;;;;17.57;15.75;;;;;;;12.83;65.29;99924.02;1750183;81;21150;-55
2021/04/15 02:50:12;;;;;;;19.02;15.63;;;;;;;12.85;65.22;99923.99;1747004;81;21565;-62
2021/04/15 02:52:43;;;;;;;19.30;16.48;;;;;;;12.85;65.10;99920.88;1746690;81;21170;-55
2021/04/15 02:55:15;;;;;;;16.48;14.85;;;;;;;12.88;65.09;99922.59;1760882;81;21127;-55
2021/04/15 02:57:47;;;;;;;18.80;15.83;;;;;;;12.89;64.98;99923.00;1744009;80;21590;-55
2021/04/15 03:00:19;;;;;;;17.75;15.90;;;;;;;12.90;64.84;99927.38;1756365;81;21123;-62
2021/04/15 03:02:49;;;;;;;19.98;15.28;;;;;;;12.89;64.84;99926.48;1760616;81;21166;-55
2021/04/15 03:05:21;;;;;;;17.67;15.32;;;;;;;12.90;64.82;99924.26;1761778;81;21272;-55
2021/04/15 03:07:49;;;;;;;22.98;16.02;;;;;;;12.90;64.90;99924.26;1753901;81;21227;-61
2021/04/15 03:10:22;;;;;;;21.65;16.80;;;;;;;12.91;64.81;99926.46;1740946;81;21131;-55
2021/04/15 03:13:01;;;;;;;19.77;16.35;;;;;;;12.90;64.74;99926.05;1761561;80;21143;-62
2021/04/15 03:15:30;;;;;;;21.30;16.45;;;;;;;12.89;64.78;99934.88;1761488;81;21142;-55
2021/04/15 03:18:01;;;;;;;19.12;16.85;;;;;;;12.88;64.76;99939.75;1719933;82;21150;-62
2021/04/15 03:20:34;;;;;;;22.45;17.25;;;;;;;13.04;64.27;99938.84;1696785;84;21125;-62
2021/04/15 03:23:25;;;;;;;18.32;16.40;;;;;;;13.05;64.19;99939.25;1710776;82;21167;-55
2021/04/15 03:25:57;;;;;;;22.77;16.87;;;;;;;13.05;64.14;99932.18;1722004;82;21300;-62
2021/04/15 03:28:31;;;;;;;;;;;;;;;13.08;64.27;99940.48;1681504;84;21559;-62
2021/04/15 03:31:03;;;;;;;16.35;14.43;;;;;;;13.09;64.21;99943.55;1689592;84;20537;-55
2021/04/15 03:33:52;;;;;;;17.48;14.87;;;;;;;13.08;64.17;99933.89;1695364;84;21161;-55
2021/04/15 03:36:33;;;;;;;17.98;16.12;;;;;;;13.09;64.04;99941.75;1685911;84;21123;-55
2021/04/15 03:39:10;;;;;;;;;;;;;;;13.06;64.24;99942.31;1682303;84;21167;-55
2021/04/15 03:41:48;;;;;;;16.52;14.75;;;;;;;13.17;63.94;99940.66;1703556;84;20136;-55
2021/04/15 03:44:21;;;;;;;18.75;15.60;;;;;;;13.13;64.10;99942.55;1677489;84;21289;-55
2021/04/15 03:47:00;;;;;;;18.92;16.27;;;;;;;13.12;64.14;99948.73;1679096;85;21507;-56
2021/04/15 03:49:39;;;;;;;20.05;15.53;;;;;;;13.11;64.05;99952.29;1692557;84;21285;-61
2021/04/15 03:52:14;;;;;;;20.85;15.40;;;;;;;13.11;63.94;99957.58;1726384;83;21626;-62
2021/04/15 03:54:46;;;;;;;20.10;14.85;;;;;;;13.11;63.75;99958.89;1727882;80;21332;-61
2021/04/15 03:57:21;;;;;;;20.57;15.30;;;;;;;13.17;63.57;99957.84;1708259;82;21284;-62
2021/04/15 04:00:07;;;;;;;21.12;15.78;;;;;;;13.18;63.51;99963.09;1756022;80;21138;-62
2021/04/15 04:02:55;;;;;;;20.23;16.25;;;;;;;13.20;63.51;99966.56;1754008;81;21873;-55
2021/04/15 04:05:40;;;;;;;21.55;16.05;;;;;;;13.23;63.47;99969.55;1755569;81;21143;-62
2021/04/15 04:08:21;;;;;;;22.37;16.73;;;;;;;13.28;63.39;99963.67;1808044;77;22185;-60
2021/04/15 04:10:49;;;;;;;20.37;16.52;;;;;;;13.26;63.69;99971.22;1743467;81;21562;-61
2021/04/15 04:13:34;;;;;;;25.27;16.67;;;;;;;13.27;63.74;99971.63;1697357;81;21598;-61
2021/04/15 04:16:17;;;;;;;24.45;16.48;;;;;;;13.27;63.84;99975.16;1744821;81;21569;-55
2021/04/15 04:19:23;;;;;;;29.37;18.35;;;;;;;13.29;64.13;99970.69;1748271;81;21138;-55
2021/04/15 04:22:09;;;;;;;19.00;17.00;;;;;;;13.33;64.13;99975.41;1749030;81;21162;-60
2021/04/15 04:24:58;;;;;;;17.98;15.93;;;;;;;13.35;64.11;99976.23;1747619;81;21280;-62
2021/04/15 04:27:55;;;;;;;21.30;15.50;;;;;;;13.39;64.16;99972.59;1741546;81;21609;-54
2021/04/15 04:30:33;;;;;;;17.85;15.18;;;;;;;13.41;64.14;99969.48;1750312;81;21319;-60
2021/04/15 04:33:04;;;;;;;20.30;15.78;;;;;;;13.42;64.19;99976.50;1724094;81;21167;-62
2021/04/15 04:35:38;;;;;;;16.77;14.50;;;;;;;13.47;64.00;99980.31;1714110;84;21293;-55
2021/04/15 04:38:08;;;;;;;17.20;14.33;;;;;;;13.48;64.05;99982.92;1714206;84;21545;-61
2021/04/15 04:40:39;;;;;;;16.25;14.45;;;;;;;13.43;64.21;99986.16;1715201;83;21197;-61
2021/04/15 04:43:10;;;;;;;;;;;;;;;13.41;64.27;99989.30;1717356;83;21338;-55
2021/04/15 04:45:38;;;;;;;16.70;13.78;;;;;;;13.39;64.37;99989.77;1726091;83;20156;-55
2021/04/15 04:48:23;;;;;;;18.10;14.95;;;;;;;13.31;64.54;99991.77;1719505;83;21203;-62
2021/04/15 04:51:09;;;;;;;17.20;14.35;;;;;;;13.27;64.65;99994.09;1713148;84;21311;-56
2021/04/15 04:53:50;;;;;;;;;;;;;;;;;;;;;
2021/04/15 04:56:34;;;;;;;16.05;14.38;;;;;;;13.28;65.22;99988.78;1834124;77;22144;-60
2021/04/15 04:59:24;;;;;;;18.32;15.18;;;;;;;13.28;64.97;99998.03;1693396;83;21149;-61
2021/04/15 05:01:53;;;;;;;16.45;14.80;;;;;;;13.24;65.19;99993.75;1695221;84;21154;-61
2021/04/15 05:04:26;;;;;;;17.02;15.15;;;;;;;13.17;65.30;100000.12;1697400;84;21574;-62
2021/04/15 05:07:04;;;;;;;16.82;15.08;;;;;;;13.14;65.36;99994.92;1708887;83;21144;-61
2021/04/15 05:09:40;;;;;;;18.35;16.35;;;;;;;13.16;65.41;100000.59;1693098;83;21174;-61
2021/04/15 05:12:11;;;;;;;20.15;17.25;;;;;;;13.15;65.54;100001.94;1725762;83;21166;-55
2021/04/15 05:14:40;;;;;;;17.77;15.88;;;;;;;13.17;65.54;100007.60;1723813;83;21151;-61
2021/04/15 05:17:26;;;;;;;20.77;17.07;;;;;;;13.15;65.66;100004.14;1706895;83;21596;-55
2021/04/15 05:19:58;;;;;;;17.98;16.05;;;;;;;13.17;65.78;100007.60;1725613;83;21198;-61
2021/04/15 05:22:37;;;;;;;19.17;16.85;;;;;;;13.22;66.01;100004.38;1725797;83;21601;-55
2021/04/15 05:25:19;;;;;;;18.62;16.45;;;;;;;13.38;65.91;100010.51;1717205;83;21285;-61
2021/04/15 05:27:47;;;;;;;18.35;16.27;;;;;;;13.42;65.58;100007.37;1702565;83;22612;-61
2021/04/15 05:30:44;;;;;;;19.48;16.70;;;;;;;13.42;65.56;100010.02;1696989;84;21200;-55
2021/04/15 05:33:22;;;;;;;16.93;15.05;;;;;;;13.44;65.67;100015.65;1718986;83;21202;-60
2021/04/15 05:36:28;;;;;;;18.90;16.75;;;;;;;13.47;65.36;100018.64;1724857;83;21127;-55
2021/04/15 05:38:58;;;;;;;18.12;15.83;;;;;;;13.44;65.28;100018.30;1725740;83;21182;-60
2021/04/15 05:41:31;;;;;;;18.27;15.58;;;;;;;13.46;65.29;100025.72;1725671;83;21195;-60
2021/04/15 05:44:15;;;;;;;19.30;15.08;;;;;;;13.46;65.20;100024.41;1718398;83;21308;-60
2021/04/15 05:46:45;;;;;;;16.37;13.75;;;;;;;13.47;65.13;100026.14;1725874;83;21575;-55
2021/04/15 05:49:21;;;;;;;12.53;10.98;;;;;;;13.44;65.05;100026.22;1725950;83;21174;-61
2021/04/15 05:51:58;;;;;;;12.75;9.40;;;;;;;13.39;65.20;100028.98;1723010;83;21134;-61
2021/04/15 05:54:25;;;;;;;9.65;8.63;;;;;;;13.29;65.16;100026.63;1715279;83;21568;-61
2021/04/15 05:57:01;;;;;;;10.58;8.60;;;;;;;13.26;65.35;100034.64;1664566;85;21332;-55
2021/04/15 05:59:57;;;;;;;10.60;8.80;;;;;;;13.22;65.53;100029.48;1689822;85;21323;-55
2021/04/15 06:02:46;;;;;;;10.50;9.35;;;;;;;13.21;65.87;100026.87;1711997;83;21618;-61
2021/04/15 06:05:29;;;;;;;10.50;9.15;;;;;;;13.24;66.01;100026.78;1689464;84;21186;-55
2021/04/15 06:08:00;;;;;;;11.33;9.90;;;;;;;13.30;66.03;100031.01;1706135;83;21199;-55
2021/04/15 06:10:31;;;;;;;11.00;7.97;;;;;;;13.33;66.20;100026.52;1706125;84;21163;-61
2021/04/15 06:13:17;;;;;;;11.35;8.73;;;;;;;13.43;66.23;100034.22;1705813;83;21181;-55
2021/04/15 06:16:01;;;;;;;10.20;7.50;;;;;;;13.35;66.12;100026.02;1683818;84;21157;-55
2021/04/15 06:18:51;;;;;;;8.40;7.35;;;;;;;13.35;66.40;100024.70;1684436;84;21350;-56
2021/04/15 06:21:28;;;;;;;8.45;7.15;;;;;;;13.44;66.83;100032.83;1686006;84;21156;-55
2021/04/15 06:24:02;;;;;;;8.50;7.42;;;;;;;13.53;66.63;100032.56;1756120;81;21606;-54
2021/04/15 06:26:49;;;;;;;8.78;7.28;;;;;;;13.61;66.54;100034.97;1746124;82;21142;-54
2021/04/15 06:29:40;;;;;;;13.20;7.40;;;;;;;14.34;64.31;100032.67;1748155;82;21175;-60
2021/04/15 06:32:15;;;;;;;12.78;6.83;;;;;;;13.79;65.81;100041.47;1745824;82;21138;-60
2021/04/15 06:34:44;;;;;;;7.78;6.40;;;;;;;13.75;65.76;100046.44;1730961;82;21107;-60
2021/04/15 06:37:20;;;;;;;8.20;6.62;;;;;;;13.68;65.37;100047.09;1756067;82;21167;-54
2021/04/15 06:39:52;;;;;;;6.35;5.12;;;;;;;13.87;64.13;100044.34;1756060;82;21139;-56
2021/04/15 06:42:51;;;;;;;16.00;6.37;;;;;;;13.46;64.75;100046.87;1727749;82;21091;-62
2021/04/15 06:46:11;;;;;;;15.23;7.70;;;;;;;13.27;65.37;100049.16;1726122;82;21484;-55
2021/04/15 06:49:08;;;;;;;10.00;7.00;;;;;;;13.27;65.70;100048.27;1726141;82;21159;-55
2021/04/15 06:51:53;;;;;;;9.60;7.12;;;;;;;13.09;66.04;100054.52;1740668;82;21150;-55
2021/04/15 06:54:46;;;;;;;10.60;7.80;;;;;;;12.87;66.45;100060.37;1756436;82;21581;-55
2021/04/15 06:57:50;;;;;;;11.78;8.95;;;;;;;12.75;66.76;100070.81;1737212;82;21171;-55
2021/04/15 07:00:44;;;;;;;10.30;7.83;;;;;;;12.76;66.97;100069.05;1738317;82;21166;-55
2021/04/15 07:03:40;;;;;;;13.00;9.13;;;;;;;12.60;66.87;100081.33;1743823;80;21196;-55
2021/04/15 07:06:35;;;;;;;9.58;7.85;;;;;;;12.64;66.88;100086.95;1755924;82;21155;-61
2021/04/15 07:09:49;;;;;;;9.33;7.05;;;;;;;12.62;66.89;100081.27;1756099;82;21208;-55
2021/04/15 07:12:52;;;;;;;10.20;6.60;;;;;;;12.48;67.03;100093.06;1727183;82;21095;-61
2021/04/15 07:15:41;;;;;;;8.88;6.72;;;;;;;12.55;67.13;100090.28;1726041;83;21119;-55
2021/04/15 07:18:41;;;;;;;7.60;6.55;;;;;;;12.74;66.56;100088.88;1692839;82;21321;-60
2021/04/15 07:21:15;;;;;;;10.93;7.83;;;;;;;12.60;66.98;100089.68;1756047;82;21171;-61
2021/04/15 07:24:14;;;;;;;11.53;7.58;;;;;;;13.56;64.29;100088.44;1755851;81;21152;-55
2021/04/15 07:26:59;;;;;;;9.45;7.60;;;;;;;13.76;63.90;100088.31;1756403;81;21281;-54
2021/04/15 07:29:54;;;;;;;9.58;7.70;;;;;;;13.66;63.61;100089.06;1705140;83;21165;-60
2021/04/15 07:32:43;;;;;;;8.95;7.00;;;;;;;13.65;63.57;100094.78;1739545;82;21114;-54
2021/04/15 07:35:41;;;;;;;9.98;7.72;;;;;;;13.49;63.43;100102.74;1720138;83;21162;-61
2021/04/15 07:38:24;;;;;;;8.80;7.12;;;;;;;13.56;63.38;100092.88;1688847;82;21209;-55
2021/04/15 07:41:26;;;;;;;9.40;7.40;;;;;;;13.90;63.21;100090.09;1820862;77;22147;-60
2021/04/15 07:44:20;;;;;;;9.00;6.90;;;;;;;13.20;65.40;100096.48;1771318;80;21135;-54
2021/04/15 07:47:32;;;;;;;7.15;5.35;;;;;;;12.92;66.66;100099.89;1761822;81;21146;-61
2021/04/15 07:50:42;;;;;;;8.53;6.47;;;;;;;13.02;65.99;100104.02;1740690;81;21150;-55
2021/04/15 07:53:24;;;;;;;;;;;;;;;12.96;65.89;100111.23;1763838;81;21586;-54
2021/04/15 07:56:19;;;;;;;7.15;5.50;;;;;;;12.64;66.27;100119.06;1761998;81;20123;-54
2021/04/15 07:59:30;;;;;;;6.87;5.08;;;;;;;13.15;64.95;100114.23;1752618;81;21099;-63
2021/04/15 08:02:19;;;;;;;6.55;5.20;;;;;;;13.14;64.71;100117.79;1740048;81;21131;-62
2021/04/15 08:05:27;;;;;;;8.25;7.10;;;;;;;12.65;66.25;100120.80;1742390;81;21087;-61
2021/04/15 08:08:27;;;;;;;7.58;6.50;;;;;;;12.51;66.49;100119.83;1761719;81;21138;-62
2021/04/15 08:11:20;;;;;;;7.12;5.53;;;;;;;12.61;66.99;100120.02;1748530;81;21139;-56
2021/04/15 08:14:30;;;;;;;7.45;6.10;;;;;;;12.64;66.18;100119.06;1761721;81;21162;-62
2021/04/15 08:17:22;;;;;;;9.58;7.03;;;;;;;12.84;66.10;100117.70;1761546;81;21272;-63
2021/04/15 08:20:45;;;;;;;12.35;6.85;;;;;;;12.87;65.52;100128.19;1761948;81;21134;-62
2021/04/15 08:23:45;;;;;;;8.90;6.42;;;;;;;12.99;65.65;100121.71;1731674;82;21158;-63
2021/04/15 08:26:29;;;;;;;12.40;9.40;;;;;;;13.07;65.86;100117.95;1744845;81;21150;-63
2021/04/15 08:29:38;;;;;;;11.50;9.15;;;;;;;13.18;65.78;100117.68;1761433;81;21284;-55
2021/04/15 08:32:28;;;;;;;11.05;8.40;;;;;;;13.22;65.73;100121.09;1740029;81;21150;-55
2021/04/15 08:35:42;;;;;;;15.80;8.33;;;;;;;13.28;65.49;100130.18;1739458;81;21142;-63
2021/04/15 08:38:35;;;;;;;10.15;7.90;;;;;;;13.29;65.34;100117.81;1748965;80;21195;-55
2021/04/15 08:41:38;;;;;;;9.30;7.50;;;;;;;13.53;65.62;100122.91;1750207;81;21641;-63
2021/04/15 08:44:20;;;;;;;9.88;7.50;;;;;;;13.74;65.56;100117.44;1742357;80;21556;-63
2021/04/15 08:47:09;;;;;;;12.28;9.18;;;;;;;13.86;64.77;100120.64;1719764;82;21112;-63
2021/04/15 08:50:06;;;;;;;7.97;6.50;;;;;;;14.04;65.02;100116.13;1713067;82;21562;-55
2021/04/15 08:52:54;;;;;;;7.37;5.80;;;;;;;14.12;65.00;100116.76;1748326;82;21128;-55
2021/04/15 08:55:33;;;;;;;8.58;5.80;;;;;;;14.23;63.89;100119.06;1744171;81;21396;-54
2021/04/15 08:58:13;;;;;;;7.65;6.37;;;;;;;14.03;62.80;100128.06;1733836;80;21173;-65
2021/04/15 09:00:53;;;;;;;7.75;5.90;;;;;;;14.32;62.62;100138.22;1747321;82;21599;-64
2021/04/15 09:03:32;;;;;;;8.15;5.80;;;;;;;14.40;62.73;100133.52;1726570;82;21270;-55
2021/04/15 09:06:25;;;;;;;7.60;5.60;;;;;;;14.52;61.97;100142.88;1718334;83;21349;-64
2021/04/15 09:09:31;;;;;;;6.55;5.42;;;;;;;14.50;62.26;100148.67;1718575;83;21739;-64
2021/04/15 09:12:39;;;;;;;5.95;4.75;;;;;;;14.48;61.45;100154.00;1727528;82;21079;-55
2021/04/15 09:15:21;;;;;;;8.33;5.80;;;;;;;14.35;61.16;100153.53;1719197;82;21143;-55
2021/04/15 09:17:55;;;;;;;6.37;5.65;;;;;;;14.28;61.80;100161.25;1718416;83;21188;-65
2021/04/15 09:20:43;;;;;;;6.45;5.33;;;;;;;14.23;61.53;100165.82;1728379;82;21100;-65
2021/04/15 09:23:43;;;;;;;6.70;5.45;;;;;;;14.21;60.64;100161.91;1725091;82;21285;-64
2021/04/15 09:26:22;;;;;;;;;;;;;;;14.12;60.90;100167.05;1720947;83;21187;-64
2021/04/15 09:29:21;;;;;;;7.75;5.50;;;;;;;14.07;60.89;100162.34;1721039;82;20229;-65
2021/04/15 09:31:56;;;;;;;6.28;5.30;;;;;;;14.07;61.23;100167.64;1746151;82;21116;-64
2021/04/15 09:34:52;;;;;;;9.20;7.20;;;;;;;14.19;61.28;100165.50;1718532;83;21324;-65
2021/04/15 09:38:00;;;;;;;10.00;7.67;;;;;;;14.23;61.13;100168.03;1732397;82;21520;-64
2021/04/15 09:40:53;;;;;;;15.18;11.55;;;;;;;14.08;62.46;100174.66;1750950;81;21154;-66
2021/04/15 09:43:56;;;;;;;6.35;5.53;;;;;;;14.09;61.50;100174.19;1731086;83;21615;-55
2021/04/15 09:46:50;;;;;;;6.92;5.35;;;;;;;14.21;61.41;100178.23;1731472;82;21633;-64
2021/04/15 09:49:35;;;;;;;6.40;5.03;;;;;;;14.13;60.98;100181.12;1731276;83;21625;-63
2021/04/15 09:52:42;;;;;;;9.28;6.78;;;;;;;13.87;60.86;100180.58;1750229;81;21131;-63
2021/04/15 09:55:30;;;;;;;6.97;4.90;;;;;;;13.93;60.94;100182.57;1761391;81;21123;-63
2021/04/15 09:58:23;;;;;;;6.12;5.45;;;;;;;13.86;60.87;100188.09;1761586;80;21547;-55
2021/04/15 10:01:08;;;;;;;5.83;4.50;;;;;;;13.69;60.91;100185.47;1742106;81;21186;-64
2021/04/15 10:04:04;;;;;;;6.35;4.80;;;;;;;13.56;61.14;100189.39;1742927;81;21147;-55
2021/04/15 10:06:36;;;;;;;7.30;6.03;;;;;;;13.57;61.58;100193.30;1731601;82;21199;-55
2021/04/15 10:09:25;;;;;;;5.78;4.50;;;;;;;13.58;61.85;100195.03;1714494;83;21612;-54
2021/04/15 10:12:15;;;;;;;7.97;5.95;;;;;;;13.60;62.03;100201.15;1731699;83;21545;-64
2021/04/15 10:15:03;;;;;;;8.05;5.78;;;;;;;13.55;62.21;100200.41;1731392;83;21761;-64
2021/04/15 10:18:11;;;;;;;7.10;5.00;;;;;;;13.51;61.80;100200.95;1731241;83;21119;-64
2021/04/15 10:21:12;;;;;;;6.30;5.12;;;;;;;13.46;61.94;100212.11;1758998;81;21151;-54
2021/04/15 10:24:15;;;;;;;7.05;5.55;;;;;;;13.39;61.80;100211.82;1756434;80;21579;-54
2021/04/15 10:27:07;;;;;;;7.55;5.30;;;;;;;13.40;62.16;100213.56;1731326;83;21186;-54
2021/04/15 10:30:07;;;;;;;7.40;5.70;;;;;;;13.46;61.63;100214.75;1731279;81;21676;-55
2021/04/15 10:33:12;;;;;;;7.20;5.65;;;;;;;13.38;62.12;100216.26;1831496;77;22587;-54
2021/04/15 10:36:07;;;;;;;7.97;6.30;;;;;;;13.30;61.93;100221.31;1761766;81;21131;-64
2021/04/15 10:38:59;;;;;;;7.17;6.05;;;;;;;13.25;61.88;100228.05;1761698;81;21626;-55
2021/04/15 10:42:13;;;;;;;6.47;5.78;;;;;;;13.21;61.96;100231.67;1761938;81;21138;-54
2021/04/15 10:45:09;;;;;;;8.10;6.35;;;;;;;13.22;62.08;100229.45;1760405;81;21099;-64
2021/04/15 10:48:09;;;;;;;9.18;7.15;;;;;;;13.08;62.24;100231.13;1761693;81;21293;-65
2021/04/15 10:51:01;;;;;;;7.77;6.80;;;;;;;13.09;62.40;100222.30;1761943;81;21175;-64
2021/04/15 10:53:49;;;;;;;7.37;6.17;;;;;;;13.06;62.44;100232.47;1714008;81;21127;-64
2021/04/15 13:05:55;;;;;;;14.18;8.93;;;;;;;12.09;68.05;100276.47;1821535;77;22189;-53
2021/04/15 13:08:42;;;;;;;9.00;8.10;;;;;;;12.09;67.42;100277.79;1793468;80;21134;-54
2021/04/15 13:11:23;;;;;;;8.88;7.95;;;;;;;12.10;67.02;100278.64;1787616;80;21120;-65
2021/04/15 13:22:22;;;;;;;9.40;8.40;;;;;;;11.83;66.07;100284.39;1812496;77;22143;-64
2021/04/15 13:25:02;;;;;;;8.75;7.25;;;;;;;11.86;66.22;100291.39;1747534;80;21592;-67
2021/04/15 13:27:40;;;;;;;11.55;7.25;;;;;;;11.75;65.95;100291.58;1748786;81;21129;-64
2021/04/15 13:30:30;;;;;;;9.83;8.30;;;;;;;11.55;65.95;100298.09;1728302;81;21548;-65
2021/04/15 13:33:35;;;;;;;10.63;9.53;;;;;;;11.58;65.90;100302.00;1682486;84;21279;-65
2021/04/15 13:36:09;;;;;;;11.83;10.63;;;;;;;11.67;65.53;100303.59;1714825;83;21139;-54
2021/04/15 13:38:45;;;;;;;10.28;9.15;;;;;;;11.72;65.37;100308.77;1709247;84;21159;-54
2021/04/15 13:41:27;;;;;;;9.85;8.85;;;;;;;11.75;65.15;100311.34;1698112;83;21323;-54
2021/04/15 13:44:09;;;;;;;15.38;13.48;;;;;;;11.77;65.16;100306.92;1669249;86;21844;-65
2021/04/15 13:46:44;;;;;;;17.92;16.32;;;;;;;11.87;65.43;100307.64;1693988;84;21170;-54
2021/04/15 13:49:21;;;;;;;15.78;14.28;;;;;;;11.79;65.57;100301.63;1689587;84;21155;-65
2021/04/15 13:52:05;;;;;;;17.82;15.95;;;;;;;11.65;65.97;100308.02;1706250;84;21178;-55
2021/04/15 13:54:40;;;;;;;18.02;16.27;;;;;;;11.64;66.13;100304.11;1706006;84;21651;-53
2021/04/15 13:57:23;;;;;;;17.62;15.93;;;;;;;11.49;66.56;100303.47;1706072;83;21601;-64
2021/04/15 13:59:57;;;;;;;17.95;16.23;;;;;;;11.50;66.35;100304.32;1702830;83;21170;-65
2021/04/15 14:03:03;;;;;;;19.50;17.55;;;;;;;11.44;66.23;100307.95;1715411;84;21151;-54
2021/04/15 14:05:35;;;;;;;15.55;14.05;;;;;;;11.35;66.49;100306.34;1692343;83;21179;-64
2021/04/15 14:08:36;;;;;;;17.40;15.70;;;;;;;11.19;66.39;100305.73;1676413;84;21206;-54
2021/04/15 14:11:37;;;;;;;18.57;15.95;;;;;;;11.14;66.32;100325.54;1715658;83;21199;-65
2021/04/15 14:14:20;;;;;;;18.62;16.65;;;;;;;11.08;66.27;100323.00;1713186;83;21151;-53
2021/04/15 14:16:51;;;;;;;20.25;18.32;;;;;;;11.04;66.42;100322.62;1696030;83;21153;-53
2021/04/15 14:19:39;;;;;;;19.23;17.23;;;;;;;11.14;66.23;100327.32;1692296;83;21173;-53
2021/04/15 14:22:20;;;;;;;19.15;17.23;;;;;;;11.19;66.19;100315.37;1829177;77;22136;-64
2021/04/15 14:24:55;;;;;;;20.68;18.48;;;;;;;11.20;65.96;100321.07;1774145;80;21590;-55
2021/04/15 14:27:24;;;;;;;21.50;19.40;;;;;;;11.27;65.98;100320.08;1762469;81;21126;-66
2021/04/15 14:29:52;;;;;;;20.00;18.00;;;;;;;11.33;65.94;100315.15;1762043;80;21178;-65
2021/04/15 14:32:27;;;;;;;18.90;17.00;;;;;;;11.28;65.68;100316.09;1754025;81;21296;-54
2021/04/15 14:35:14;;;;;;;18.25;16.00;;;;;;;11.41;65.26;100321.17;1731601;82;21297;-65
2021/04/15 14:37:47;;;;;;;18.75;16.85;;;;;;;11.40;64.96;100308.45;1833718;77;23587;-53
2021/04/15 14:40:31;;;;;;;18.32;16.52;;;;;;;10.94;66.10;100323.67;1764799;80;21605;-53
2021/04/15 14:43:19;;;;;;;17.73;15.90;;;;;;;11.11;65.30;100315.05;1762116;81;21115;-55
2021/04/15 14:45:48;;;;;;;17.15;15.45;;;;;;;10.39;67.68;100326.16;1742427;81;21561;-66
2021/04/15 14:48:31;;;;;;;19.80;17.85;;;;;;;10.62;66.88;100327.17;1699335;84;21138;-66
2021/04/15 14:51:12;;;;;;;20.00;18.05;;;;;;;11.06;65.52;100324.78;1716190;83;21165;-65
2021/04/15 14:53:43;;;;;;;18.87;16.97;;;;;;;11.25;65.10;100320.55;1723991;83;21208;-66
2021/04/15 14:56:21;;;;;;;19.02;17.17;;;;;;;11.29;65.10;100327.05;1725920;83;21159;-66